To NAV CANADA Home Page Login to a new session Search on AWWS site Feedback and Comments Disclaimer Vers la page française équivalente Tips FAQ What's new on the site To the Forecasts and Observations / NOTAM section To "File a Flight Plan" website Publications and other links Update of the User's profile FIC Telephone Numbers My Weather Data Folder Route Weather Data Regional Weather Data Local Weather Data To the Forecasts and Observations / NOTAM section
Request Generated 08/29/2015 at 20:52:30 UTC . Weather information available at that time is displayed.

METAR/TAF

SLAVE LAKE/AB    (show WxCam)

METAR CYZH 292000Z AUTO 13012G18KT 9SM CLR 22/09 A2963 RMK TS/LTNG
TEMPO UNAVBL SLP034 DENSITY ALT 3400FT=
METAR CYZH 291900Z AUTO 15008KT 9SM FEW120 22/07 A2965 RMK TS/LTNG
TEMPO UNAVBL SLP043 DENSITY ALT 3400FT=
METAR CYZH 291800Z AUTO 15011KT 100V170 9SM CLR 21/08 A2968 RMK
TS/LTNG TEMPO UNAVBL SLP053 DENSITY ALT 3200FT=

TAF CYZH 291838Z 2919/3007 15012KT P6SM SKC
BECMG 2921/2923 12015G25KT
FM300200 14014G25KT P6SM -SHRA BKN040 OVC100 PROB40 3002/3005
VRB30G40KT 2SM TSRA BKN020 OVC040CB
FM300500 25010KT P6SM SKC
RMK FCST BASED ON AUTO OBS. NXT FCST BY 300100Z=
Your time UTC time
Weather data provided by Environment Canada and NAV CANADA